sensor_id;sensor_type;location;lat;lon;timestamp;P1;durP1;ratioP1;P2;durP2;ratioP2
65658;SDS011;60181;53.258;6.932;2022-08-25T00:00:25;13.60;;;7.80;;
65658;SDS011;60181;53.258;6.932;2022-08-25T00:04:53;13.60;;;7.80;;
65658;SDS011;60181;53.258;6.932;2022-08-25T00:09:23;14.90;;;7.60;;
65658;SDS011;60181;53.258;6.932;2022-08-25T00:13:51;14.90;;;7.60;;
65658;SDS011;60181;53.258;6.932;2022-08-25T00:18:17;17.60;;;8.30;;
65658;SDS011;60181;53.258;6.932;2022-08-25T00:22:45;17.60;;;8.30;;
65658;SDS011;60181;53.258;6.932;2022-08-25T00:27:13;17.60;;;8.30;;
65658;SDS011;60181;53.258;6.932;2022-08-25T00:31:41;12.80;;;8.00;;
65658;SDS011;60181;53.258;6.932;2022-08-25T00:36:10;12.80;;;8.00;;
65658;SDS011;60181;53.258;6.932;2022-08-25T00:40:38;17.50;;;8.20;;
65658;SDS011;60181;53.258;6.932;2022-08-25T00:45:06;17.50;;;8.20;;
65658;SDS011;60181;53.258;6.932;2022-08-25T00:54:02;17.80;;;7.80;;
65658;SDS011;60181;53.258;6.932;2022-08-25T00:58:29;11.20;;;7.70;;
65658;SDS011;60181;53.258;6.932;2022-08-25T01:02:58;11.20;;;7.70;;
65658;SDS011;60181;53.258;6.932;2022-08-25T01:07:25;11.20;;;7.70;;
65658;SDS011;60181;53.258;6.932;2022-08-25T01:11:53;17.20;;;8.50;;
65658;SDS011;60181;53.258;6.932;2022-08-25T01:16:21;17.20;;;8.50;;
65658;SDS011;60181;53.258;6.932;2022-08-25T01:20:50;17.50;;;8.00;;
65658;SDS011;60181;53.258;6.932;2022-08-25T01:25:31;17.50;;;8.00;;
65658;SDS011;60181;53.258;6.932;2022-08-25T01:29:45;21.20;;;7.70;;
65658;SDS011;60181;53.258;6.932;2022-08-25T01:34:14;21.20;;;7.70;;
65658;SDS011;60181;53.258;6.932;2022-08-25T01:38:41;17.70;;;7.30;;
65658;SDS011;60181;53.258;6.932;2022-08-25T01:47:37;12.90;;;7.10;;
65658;SDS011;60181;53.258;6.932;2022-08-25T01:56:33;12.90;;;7.10;;
65658;SDS011;60181;53.258;6.932;2022-08-25T02:01:03;13.40;;;7.00;;
65658;SDS011;60181;53.258;6.932;2022-08-25T02:05:29;13.40;;;7.00;;
65658;SDS011;60181;53.258;6.932;2022-08-25T02:09:57;14.20;;;6.80;;
65658;SDS011;60181;53.258;6.932;2022-08-25T02:14:26;14.20;;;6.80;;
65658;SDS011;60181;53.258;6.932;2022-08-25T02:18:54;11.20;;;6.90;;
65658;SDS011;60181;53.258;6.932;2022-08-25T02:23:21;11.20;;;6.90;;
65658;SDS011;60181;53.258;6.932;2022-08-25T02:27:49;12.40;;;7.20;;
65658;SDS011;60181;53.258;6.932;2022-08-25T02:32:17;12.40;;;7.20;;
65658;SDS011;60181;53.258;6.932;2022-08-25T02:36:45;12.40;;;7.20;;
65658;SDS011;60181;53.258;6.932;2022-08-25T02:41:20;21.90;;;7.40;;
65658;SDS011;60181;53.258;6.932;2022-08-25T02:45:41;21.90;;;7.40;;
65658;SDS011;60181;53.258;6.932;2022-08-25T02:50:09;25.30;;;7.40;;
65658;SDS011;60181;53.258;6.932;2022-08-25T02:54:37;25.30;;;7.40;;
65658;SDS011;60181;53.258;6.932;2022-08-25T02:59:05;29.60;;;7.30;;
65658;SDS011;60181;53.258;6.932;2022-08-25T03:03:33;29.60;;;7.30;;
65658;SDS011;60181;53.258;6.932;2022-08-25T03:08:02;18.70;;;7.00;;
65658;SDS011;60181;53.258;6.932;2022-08-25T03:12:29;18.70;;;7.00;;
65658;SDS011;60181;53.258;6.932;2022-08-25T03:16:57;18.70;;;7.00;;
65658;SDS011;60181;53.258;6.932;2022-08-25T03:21:26;19.00;;;5.90;;
65658;SDS011;60181;53.258;6.932;2022-08-25T03:25:53;19.00;;;5.90;;
65658;SDS011;60181;53.258;6.932;2022-08-25T03:30:21;14.90;;;6.10;;
65658;SDS011;60181;53.258;6.932;2022-08-25T03:34:49;14.90;;;6.10;;
65658;SDS011;60181;53.258;6.932;2022-08-25T03:39:18;13.20;;;6.40;;
65658;SDS011;60181;53.258;6.932;2022-08-25T03:43:45;13.20;;;6.40;;
65658;SDS011;60181;53.258;6.932;2022-08-25T03:48:13;11.60;;;6.60;;
65658;SDS011;60181;53.258;6.932;2022-08-25T03:52:41;11.60;;;6.60;;
65658;SDS011;60181;53.258;6.932;2022-08-25T03:57:09;11.60;;;6.60;;
65658;SDS011;60181;53.258;6.932;2022-08-25T04:01:39;13.20;;;6.80;;
65658;SDS011;60181;53.258;6.932;2022-08-25T04:06:06;13.20;;;6.80;;
65658;SDS011;60181;53.258;6.932;2022-08-25T04:10:33;17.20;;;6.90;;
65658;SDS011;60181;53.258;6.932;2022-08-25T04:15:02;17.20;;;6.90;;
65658;SDS011;60181;53.258;6.932;2022-08-25T04:19:29;23.90;;;7.90;;
65658;SDS011;60181;53.258;6.932;2022-08-25T04:23:57;23.90;;;7.90;;
65658;SDS011;60181;53.258;6.932;2022-08-25T04:28:25;18.90;;;7.90;;
65658;SDS011;60181;53.258;6.932;2022-08-25T04:32:53;18.90;;;7.90;;
65658;SDS011;60181;53.258;6.932;2022-08-25T04:37:21;18.90;;;7.90;;
65658;SDS011;60181;53.258;6.932;2022-08-25T04:41:49;15.20;;;7.40;;
65658;SDS011;60181;53.258;6.932;2022-08-25T04:46:21;15.20;;;7.40;;
65658;SDS011;60181;53.258;6.932;2022-08-25T04:50:45;16.30;;;8.10;;
65658;SDS011;60181;53.258;6.932;2022-08-25T04:55:13;16.30;;;8.10;;
65658;SDS011;60181;53.258;6.932;2022-08-25T04:59:41;15.40;;;7.40;;
65658;SDS011;60181;53.258;6.932;2022-08-25T05:04:10;15.40;;;7.40;;
65658;SDS011;60181;53.258;6.932;2022-08-25T05:08:37;12.90;;;8.10;;
65658;SDS011;60181;53.258;6.932;2022-08-25T05:13:05;12.90;;;8.10;;
65658;SDS011;60181;53.258;6.932;2022-08-25T05:17:33;13.60;;;8.10;;
65658;SDS011;60181;53.258;6.932;2022-08-25T05:22:01;13.60;;;8.10;;
65658;SDS011;60181;53.258;6.932;2022-08-25T05:26:30;13.60;;;8.10;;
65658;SDS011;60181;53.258;6.932;2022-08-25T05:30:58;15.50;;;7.90;;
65658;SDS011;60181;53.258;6.932;2022-08-25T05:35:25;15.50;;;7.90;;
65658;SDS011;60181;53.258;6.932;2022-08-25T05:39:53;16.20;;;8.10;;
65658;SDS011;60181;53.258;6.932;2022-08-25T05:44:21;16.20;;;8.10;;
65658;SDS011;60181;53.258;6.932;2022-08-25T05:48:49;13.90;;;8.10;;
65658;SDS011;60181;53.258;6.932;2022-08-25T05:53:17;13.90;;;8.10;;
65658;SDS011;60181;53.258;6.932;2022-08-25T05:57:45;21.10;;;8.20;;
65658;SDS011;60181;53.258;6.932;2022-08-25T06:02:13;21.10;;;8.20;;
65658;SDS011;60181;53.258;6.932;2022-08-25T06:06:41;21.10;;;8.20;;
65658;SDS011;60181;53.258;6.932;2022-08-25T06:11:10;30.80;;;8.70;;
65658;SDS011;60181;53.258;6.932;2022-08-25T06:15:37;30.80;;;8.70;;
65658;SDS011;60181;53.258;6.932;2022-08-25T06:20:06;25.30;;;8.30;;
65658;SDS011;60181;53.258;6.932;2022-08-25T06:24:33;25.30;;;8.30;;
65658;SDS011;60181;53.258;6.932;2022-08-25T06:29:01;19.90;;;8.60;;
65658;SDS011;60181;53.258;6.932;2022-08-25T06:33:29;19.90;;;8.60;;
65658;SDS011;60181;53.258;6.932;2022-08-25T06:37:57;19.90;;;8.90;;
65658;SDS011;60181;53.258;6.932;2022-08-25T06:42:25;19.90;;;8.90;;
65658;SDS011;60181;53.258;6.932;2022-08-25T06:46:53;19.90;;;8.90;;
65658;SDS011;60181;53.258;6.932;2022-08-25T06:51:21;23.10;;;12.10;;
65658;SDS011;60181;53.258;6.932;2022-08-25T06:55:55;23.10;;;12.10;;
65658;SDS011;60181;53.258;6.932;2022-08-25T07:00:17;22.70;;;11.60;;
65658;SDS011;60181;53.258;6.932;2022-08-25T07:04:45;22.70;;;11.60;;
65658;SDS011;60181;53.258;6.932;2022-08-25T07:09:13;18.10;;;10.90;;
65658;SDS011;60181;53.258;6.932;2022-08-25T07:13:41;18.10;;;10.90;;
65658;SDS011;60181;53.258;6.932;2022-08-25T07:18:09;23.30;;;11.30;;
65658;SDS011;60181;53.258;6.932;2022-08-25T07:22:37;23.30;;;11.30;;
65658;SDS011;60181;53.258;6.932;2022-08-25T07:27:05;23.30;;;11.30;;
65658;SDS011;60181;53.258;6.932;2022-08-25T07:31:33;24.00;;;11.00;;
65658;SDS011;60181;53.258;6.932;2022-08-25T07:36:01;24.00;;;11.00;;
65658;SDS011;60181;53.258;6.932;2022-08-25T07:40:30;21.30;;;10.20;;
65658;SDS011;60181;53.258;6.932;2022-08-25T07:44:57;21.30;;;10.20;;
65658;SDS011;60181;53.258;6.932;2022-08-25T07:49:25;18.00;;;10.10;;
65658;SDS011;60181;53.258;6.932;2022-08-25T07:53:53;18.00;;;10.10;;
65658;SDS011;60181;53.258;6.932;2022-08-25T07:58:21;21.90;;;10.00;;
65658;SDS011;60181;53.258;6.932;2022-08-25T08:02:49;21.90;;;10.00;;
65658;SDS011;60181;53.258;6.932;2022-08-25T08:07:21;21.90;;;10.00;;
65658;SDS011;60181;53.258;6.932;2022-08-25T08:11:45;26.50;;;9.90;;
65658;SDS011;60181;53.258;6.932;2022-08-25T08:16:14;26.50;;;9.90;;
65658;SDS011;60181;53.258;6.932;2022-08-25T08:20:42;22.40;;;10.20;;
65658;SDS011;60181;53.258;6.932;2022-08-25T08:25:09;22.40;;;10.20;;
65658;SDS011;60181;53.258;6.932;2022-08-25T08:29:37;22.90;;;10.10;;
65658;SDS011;60181;53.258;6.932;2022-08-25T08:34:05;22.90;;;10.10;;
65658;SDS011;60181;53.258;6.932;2022-08-25T08:38:33;18.50;;;10.00;;
65658;SDS011;60181;53.258;6.932;2022-08-25T08:43:05;18.50;;;10.00;;
65658;SDS011;60181;53.258;6.932;2022-08-25T08:51:59;20.00;;;13.60;;
65658;SDS011;60181;53.258;6.932;2022-08-25T08:56:28;20.00;;;13.60;;
65658;SDS011;60181;53.258;6.932;2022-08-25T09:00:54;32.90;;;13.00;;
65658;SDS011;60181;53.258;6.932;2022-08-25T09:05:21;32.90;;;13.00;;
65658;SDS011;60181;53.258;6.932;2022-08-25T09:09:49;24.80;;;12.70;;
65658;SDS011;60181;53.258;6.932;2022-08-25T09:14:24;24.80;;;12.70;;
65658;SDS011;60181;53.258;6.932;2022-08-25T09:18:47;29.70;;;13.00;;
65658;SDS011;60181;53.258;6.932;2022-08-25T09:32:09;21.60;;;12.40;;
65658;SDS011;60181;53.258;6.932;2022-08-25T09:36:37;21.60;;;12.40;;
65658;SDS011;60181;53.258;6.932;2022-08-25T09:41:05;22.70;;;12.20;;
65658;SDS011;60181;53.258;6.932;2022-08-25T09:45:39;22.70;;;12.20;;
65658;SDS011;60181;53.258;6.932;2022-08-25T09:50:01;18.80;;;11.70;;
65658;SDS011;60181;53.258;6.932;2022-08-25T09:54:29;18.80;;;11.70;;
65658;SDS011;60181;53.258;6.932;2022-08-25T10:03:25;21.40;;;12.10;;
65658;SDS011;60181;53.258;6.932;2022-08-25T10:07:59;19.50;;;11.90;;
65658;SDS011;60181;53.258;6.932;2022-08-25T10:12:28;19.50;;;11.90;;
65658;SDS011;60181;53.258;6.932;2022-08-25T10:16:49;19.50;;;11.90;;
65658;SDS011;60181;53.258;6.932;2022-08-25T10:21:16;19.50;;;12.60;;
65658;SDS011;60181;53.258;6.932;2022-08-25T10:25:45;19.50;;;12.60;;
65658;SDS011;60181;53.258;6.932;2022-08-25T10:30:19;21.60;;;12.80;;
65658;SDS011;60181;53.258;6.932;2022-08-25T10:34:47;21.60;;;12.80;;
65658;SDS011;60181;53.258;6.932;2022-08-25T10:39:13;20.70;;;12.60;;
65658;SDS011;60181;53.258;6.932;2022-08-25T10:43:46;20.70;;;12.60;;
65658;SDS011;60181;53.258;6.932;2022-08-25T10:48:10;20.90;;;11.90;;
65658;SDS011;60181;53.258;6.932;2022-08-25T10:57:19;20.90;;;11.90;;
65658;SDS011;60181;53.258;6.932;2022-08-25T11:01:38;19.00;;;11.30;;
65658;SDS011;60181;53.258;6.932;2022-08-25T11:06:00;19.00;;;11.30;;
65658;SDS011;60181;53.258;6.932;2022-08-25T11:10:27;21.00;;;10.80;;
65658;SDS011;60181;53.258;6.932;2022-08-25T11:14:54;21.00;;;10.80;;
65658;SDS011;60181;53.258;6.932;2022-08-25T11:23:51;20.30;;;10.90;;
65658;SDS011;60181;53.258;6.932;2022-08-25T11:32:48;16.40;;;10.40;;
65658;SDS011;60181;53.258;6.932;2022-08-25T11:37:17;16.40;;;10.40;;
65658;SDS011;60181;53.258;6.932;2022-08-25T11:55:05;19.00;;;9.80;;
65658;SDS011;60181;53.258;6.932;2022-08-25T12:04:09;23.30;;;10.00;;
65658;SDS011;60181;53.258;6.932;2022-08-25T12:08:46;20.10;;;10.10;;
65658;SDS011;60181;53.258;6.932;2022-08-25T12:12:58;20.10;;;10.10;;
65658;SDS011;60181;53.258;6.932;2022-08-25T12:17:25;20.10;;;10.10;;
65658;SDS011;60181;53.258;6.932;2022-08-25T12:21:53;20.50;;;9.40;;
65658;SDS011;60181;53.258;6.932;2022-08-25T12:26:35;20.50;;;9.40;;
65658;SDS011;60181;53.258;6.932;2022-08-25T12:30:51;17.00;;;9.30;;
65658;SDS011;60181;53.258;6.932;2022-08-25T12:48:41;17.60;;;9.10;;
65658;SDS011;60181;53.258;6.932;2022-08-25T12:53:29;17.60;;;9.10;;
65658;SDS011;60181;53.258;6.932;2022-08-25T12:57:41;13.50;;;8.60;;
65658;SDS011;60181;53.258;6.932;2022-08-25T13:11:08;16.50;;;8.60;;
65658;SDS011;60181;53.258;6.932;2022-08-25T13:15:36;16.50;;;8.60;;
65658;SDS011;60181;53.258;6.932;2022-08-25T13:20:18;12.10;;;8.20;;
65658;SDS011;60181;53.258;6.932;2022-08-25T13:24:28;12.10;;;8.20;;
65658;SDS011;60181;53.258;6.932;2022-08-25T13:28:54;12.60;;;7.80;;
65658;SDS011;60181;53.258;6.932;2022-08-25T13:33:21;12.60;;;7.80;;
65658;SDS011;60181;53.258;6.932;2022-08-25T13:37:49;19.70;;;8.40;;
65658;SDS011;60181;53.258;6.932;2022-08-25T13:42:16;19.70;;;8.40;;
65658;SDS011;60181;53.258;6.932;2022-08-25T13:46:44;19.70;;;8.40;;
65658;SDS011;60181;53.258;6.932;2022-08-25T13:51:22;15.00;;;7.90;;
65658;SDS011;60181;53.258;6.932;2022-08-25T13:55:47;15.00;;;7.90;;
65658;SDS011;60181;53.258;6.932;2022-08-25T14:00:09;13.00;;;7.90;;
65658;SDS011;60181;53.258;6.932;2022-08-25T14:04:44;13.00;;;7.90;;
65658;SDS011;60181;53.258;6.932;2022-08-25T14:09:06;13.00;;;7.20;;
65658;SDS011;60181;53.258;6.932;2022-08-25T14:13:32;13.00;;;7.20;;
65658;SDS011;60181;53.258;6.932;2022-08-25T14:18:02;12.70;;;7.60;;
65658;SDS011;60181;53.258;6.932;2022-08-25T14:22:28;12.70;;;7.60;;
65658;SDS011;60181;53.258;6.932;2022-08-25T14:26:56;12.70;;;7.60;;
65658;SDS011;60181;53.258;6.932;2022-08-25T14:31:28;14.30;;;8.00;;
65658;SDS011;60181;53.258;6.932;2022-08-25T14:35:52;14.30;;;8.00;;
65658;SDS011;60181;53.258;6.932;2022-08-25T14:40:20;12.50;;;7.80;;
65658;SDS011;60181;53.258;6.932;2022-08-25T14:44:48;12.50;;;7.80;;
65658;SDS011;60181;53.258;6.932;2022-08-25T14:49:23;13.90;;;7.80;;
65658;SDS011;60181;53.258;6.932;2022-08-25T14:53:44;13.90;;;7.80;;
65658;SDS011;60181;53.258;6.932;2022-08-25T14:58:12;12.70;;;7.40;;
65658;SDS011;60181;53.258;6.932;2022-08-25T15:02:41;12.70;;;7.40;;
65658;SDS011;60181;53.258;6.932;2022-08-25T15:07:10;12.70;;;7.40;;
65658;SDS011;60181;53.258;6.932;2022-08-25T15:11:44;12.90;;;7.80;;
65658;SDS011;60181;53.258;6.932;2022-08-25T15:16:04;12.90;;;7.80;;
65658;SDS011;60181;53.258;6.932;2022-08-25T15:20:32;14.30;;;8.00;;
65658;SDS011;60181;53.258;6.932;2022-08-25T15:25:00;14.30;;;8.00;;
65658;SDS011;60181;53.258;6.932;2022-08-25T15:29:28;14.20;;;8.10;;
65658;SDS011;60181;53.258;6.932;2022-08-25T15:33:56;14.20;;;8.10;;
65658;SDS011;60181;53.258;6.932;2022-08-25T15:38:24;12.20;;;7.30;;
65658;SDS011;60181;53.258;6.932;2022-08-25T15:42:52;12.20;;;7.30;;
65658;SDS011;60181;53.258;6.932;2022-08-25T15:47:21;12.20;;;7.30;;
65658;SDS011;60181;53.258;6.932;2022-08-25T15:51:48;15.30;;;7.70;;
65658;SDS011;60181;53.258;6.932;2022-08-25T15:56:16;15.30;;;7.70;;
65658;SDS011;60181;53.258;6.932;2022-08-25T16:00:45;15.30;;;7.90;;
65658;SDS011;60181;53.258;6.932;2022-08-25T16:05:12;15.30;;;7.90;;
65658;SDS011;60181;53.258;6.932;2022-08-25T16:09:40;14.00;;;8.10;;
65658;SDS011;60181;53.258;6.932;2022-08-25T16:14:08;14.00;;;8.10;;
65658;SDS011;60181;53.258;6.932;2022-08-25T16:18:36;11.30;;;7.60;;
65658;SDS011;60181;53.258;6.932;2022-08-25T16:23:04;11.30;;;7.60;;
65658;SDS011;60181;53.258;6.932;2022-08-25T16:27:32;11.30;;;7.60;;
65658;SDS011;60181;53.258;6.932;2022-08-25T16:32:00;12.40;;;7.60;;
65658;SDS011;60181;53.258;6.932;2022-08-25T16:36:28;12.40;;;7.60;;
65658;SDS011;60181;53.258;6.932;2022-08-25T16:40:56;13.00;;;7.90;;
65658;SDS011;60181;53.258;6.932;2022-08-25T16:45:24;13.00;;;7.90;;
65658;SDS011;60181;53.258;6.932;2022-08-25T16:49:52;15.60;;;8.10;;
65658;SDS011;60181;53.258;6.932;2022-08-25T16:54:20;15.60;;;8.10;;
65658;SDS011;60181;53.258;6.932;2022-08-25T16:58:48;14.60;;;8.00;;
65658;SDS011;60181;53.258;6.932;2022-08-25T17:03:16;14.60;;;8.00;;
65658;SDS011;60181;53.258;6.932;2022-08-25T17:07:44;14.60;;;8.00;;
65658;SDS011;60181;53.258;6.932;2022-08-25T17:12:12;13.70;;;8.10;;
65658;SDS011;60181;53.258;6.932;2022-08-25T17:16:40;13.70;;;8.10;;
65658;SDS011;60181;53.258;6.932;2022-08-25T17:21:09;14.10;;;7.60;;
65658;SDS011;60181;53.258;6.932;2022-08-25T17:25:36;14.10;;;7.60;;
65658;SDS011;60181;53.258;6.932;2022-08-25T17:30:04;12.20;;;8.40;;
65658;SDS011;60181;53.258;6.932;2022-08-25T17:34:32;12.20;;;8.40;;
65658;SDS011;60181;53.258;6.932;2022-08-25T17:39:00;14.30;;;9.00;;
65658;SDS011;60181;53.258;6.932;2022-08-25T17:43:28;14.30;;;9.00;;
65658;SDS011;60181;53.258;6.932;2022-08-25T17:47:56;16.90;;;9.30;;
65658;SDS011;60181;53.258;6.932;2022-08-25T17:52:24;16.90;;;9.30;;
65658;SDS011;60181;53.258;6.932;2022-08-25T17:56:52;16.90;;;9.30;;
65658;SDS011;60181;53.258;6.932;2022-08-25T18:01:21;15.30;;;9.30;;
65658;SDS011;60181;53.258;6.932;2022-08-25T18:05:48;15.30;;;9.30;;
65658;SDS011;60181;53.258;6.932;2022-08-25T18:10:16;19.40;;;9.30;;
65658;SDS011;60181;53.258;6.932;2022-08-25T18:14:44;19.40;;;9.30;;
65658;SDS011;60181;53.258;6.932;2022-08-25T18:19:12;18.00;;;9.80;;
65658;SDS011;60181;53.258;6.932;2022-08-25T18:23:40;18.00;;;9.80;;
65658;SDS011;60181;53.258;6.932;2022-08-25T18:28:08;15.70;;;9.60;;
65658;SDS011;60181;53.258;6.932;2022-08-25T18:32:36;15.70;;;9.60;;
65658;SDS011;60181;53.258;6.932;2022-08-25T18:37:04;15.70;;;9.60;;
65658;SDS011;60181;53.258;6.932;2022-08-25T18:41:33;19.30;;;9.80;;
65658;SDS011;60181;53.258;6.932;2022-08-25T18:46:00;19.30;;;9.80;;
65658;SDS011;60181;53.258;6.932;2022-08-25T18:50:29;14.80;;;9.80;;
65658;SDS011;60181;53.258;6.932;2022-08-25T18:54:56;14.80;;;9.80;;
65658;SDS011;60181;53.258;6.932;2022-08-25T18:59:24;18.10;;;10.30;;
65658;SDS011;60181;53.258;6.932;2022-08-25T19:03:52;18.10;;;10.30;;
65658;SDS011;60181;53.258;6.932;2022-08-25T19:08:20;19.80;;;11.20;;
65658;SDS011;60181;53.258;6.932;2022-08-25T19:12:48;19.80;;;11.20;;
65658;SDS011;60181;53.258;6.932;2022-08-25T19:17:16;19.80;;;11.20;;
65658;SDS011;60181;53.258;6.932;2022-08-25T19:21:44;19.90;;;10.60;;
65658;SDS011;60181;53.258;6.932;2022-08-25T19:26:12;19.90;;;10.60;;
65658;SDS011;60181;53.258;6.932;2022-08-25T19:30:40;17.30;;;10.90;;
65658;SDS011;60181;53.258;6.932;2022-08-25T19:35:09;17.30;;;10.90;;
65658;SDS011;60181;53.258;6.932;2022-08-25T19:39:37;18.30;;;11.00;;
65658;SDS011;60181;53.258;6.932;2022-08-25T19:44:04;18.30;;;11.00;;
65658;SDS011;60181;53.258;6.932;2022-08-25T19:48:32;15.80;;;10.50;;
65658;SDS011;60181;53.258;6.932;2022-08-25T19:53:00;15.80;;;10.50;;
65658;SDS011;60181;53.258;6.932;2022-08-25T19:57:28;15.80;;;10.50;;
65658;SDS011;60181;53.258;6.932;2022-08-25T20:01:56;15.50;;;10.60;;
65658;SDS011;60181;53.258;6.932;2022-08-25T20:06:24;15.50;;;10.60;;
65658;SDS011;60181;53.258;6.932;2022-08-25T20:10:52;19.10;;;10.60;;
65658;SDS011;60181;53.258;6.932;2022-08-25T20:15:20;19.10;;;10.60;;
65658;SDS011;60181;53.258;6.932;2022-08-25T20:19:48;21.20;;;11.30;;
65658;SDS011;60181;53.258;6.932;2022-08-25T20:24:16;21.20;;;11.30;;
65658;SDS011;60181;53.258;6.932;2022-08-25T20:28:44;16.00;;;10.30;;
65658;SDS011;60181;53.258;6.932;2022-08-25T20:33:12;16.00;;;10.30;;
65658;SDS011;60181;53.258;6.932;2022-08-25T20:37:40;16.00;;;10.30;;
65658;SDS011;60181;53.258;6.932;2022-08-25T20:42:08;19.80;;;11.10;;
65658;SDS011;60181;53.258;6.932;2022-08-25T20:46:36;19.80;;;11.10;;
65658;SDS011;60181;53.258;6.932;2022-08-25T20:51:04;17.90;;;11.60;;
65658;SDS011;60181;53.258;6.932;2022-08-25T20:55:32;17.90;;;11.60;;
65658;SDS011;60181;53.258;6.932;2022-08-25T21:00:00;14.80;;;11.00;;
65658;SDS011;60181;53.258;6.932;2022-08-25T21:04:28;14.80;;;11.00;;
65658;SDS011;60181;53.258;6.932;2022-08-25T21:08:56;16.30;;;11.60;;
65658;SDS011;60181;53.258;6.932;2022-08-25T21:13:24;16.30;;;11.60;;
65658;SDS011;60181;53.258;6.932;2022-08-25T21:17:52;15.80;;;11.60;;
65658;SDS011;60181;53.258;6.932;2022-08-25T21:22:20;15.80;;;11.60;;
65658;SDS011;60181;53.258;6.932;2022-08-25T21:26:48;15.80;;;11.60;;
65658;SDS011;60181;53.258;6.932;2022-08-25T21:31:16;17.20;;;11.70;;
65658;SDS011;60181;53.258;6.932;2022-08-25T21:35:44;17.20;;;11.70;;
65658;SDS011;60181;53.258;6.932;2022-08-25T21:40:12;17.10;;;11.90;;
65658;SDS011;60181;53.258;6.932;2022-08-25T21:44:40;17.10;;;11.90;;
65658;SDS011;60181;53.258;6.932;2022-08-25T21:49:08;16.60;;;12.00;;
65658;SDS011;60181;53.258;6.932;2022-08-25T21:53:36;16.60;;;12.00;;
65658;SDS011;60181;53.258;6.932;2022-08-25T21:58:04;17.20;;;11.80;;
65658;SDS011;60181;53.258;6.932;2022-08-25T22:02:32;17.20;;;11.80;;
65658;SDS011;60181;53.258;6.932;2022-08-25T22:07:00;17.20;;;11.80;;
65658;SDS011;60181;53.258;6.932;2022-08-25T22:11:28;19.80;;;12.60;;
65658;SDS011;60181;53.258;6.932;2022-08-25T22:15:56;19.80;;;12.60;;
65658;SDS011;60181;53.258;6.932;2022-08-25T22:20:24;22.40;;;12.80;;
65658;SDS011;60181;53.258;6.932;2022-08-25T22:24:51;22.40;;;12.80;;
65658;SDS011;60181;53.258;6.932;2022-08-25T22:29:19;18.80;;;12.30;;
65658;SDS011;60181;53.258;6.932;2022-08-25T22:33:48;18.80;;;12.30;;
65658;SDS011;60181;53.258;6.932;2022-08-25T22:38:15;21.20;;;12.60;;
65658;SDS011;60181;53.258;6.932;2022-08-25T22:42:43;21.20;;;12.60;;
65658;SDS011;60181;53.258;6.932;2022-08-25T22:47:12;21.20;;;12.60;;
65658;SDS011;60181;53.258;6.932;2022-08-25T22:51:39;16.90;;;12.30;;
65658;SDS011;60181;53.258;6.932;2022-08-25T22:56:08;16.90;;;12.30;;
65658;SDS011;60181;53.258;6.932;2022-08-25T23:00:39;17.60;;;12.10;;
65658;SDS011;60181;53.258;6.932;2022-08-25T23:05:04;17.60;;;12.10;;
65658;SDS011;60181;53.258;6.932;2022-08-25T23:09:31;21.00;;;12.80;;
65658;SDS011;60181;53.258;6.932;2022-08-25T23:13:59;21.00;;;12.80;;
65658;SDS011;60181;53.258;6.932;2022-08-25T23:18:28;18.80;;;12.50;;
65658;SDS011;60181;53.258;6.932;2022-08-25T23:22:55;18.80;;;12.50;;
65658;SDS011;60181;53.258;6.932;2022-08-25T23:27:23;18.80;;;12.50;;
65658;SDS011;60181;53.258;6.932;2022-08-25T23:31:51;17.20;;;12.30;;
65658;SDS011;60181;53.258;6.932;2022-08-25T23:36:19;17.20;;;12.30;;
65658;SDS011;60181;53.258;6.932;2022-08-25T23:40:47;18.20;;;13.10;;
65658;SDS011;60181;53.258;6.932;2022-08-25T23:45:15;18.20;;;13.10;;
65658;SDS011;60181;53.258;6.932;2022-08-25T23:49:43;17.80;;;13.30;;
65658;SDS011;60181;53.258;6.932;2022-08-25T23:54:11;17.80;;;13.30;;
65658;SDS011;60181;53.258;6.932;2022-08-25T23:58:39;21.10;;;13.60;;
